METAR stanice u blizini

 

LYBE - Beograd / Surčin, Srbija
Ažurirano: 07/04/2020 18:00
Vedro
Vedro
 Pravac vetra I
Vetar: I 19 km/h
Temperatura: 17°C
Tačka rose: -10°C
Vlažnost: 15%
Pritisak: 1031 hPa
Pregled: Vedro
Vidljivost: greater than 10 km
2020/04/07 16:00 LYBE 071600Z 10010KT CAVOK 17/M10 Q1031 NOSIG
LYBT - Beograd / Batajnica, Srbija
Ažurirano: 07/04/2020 18:00
Vedro
Vedro
 Pravac vetra I
Vetar: I 19 km/h
Temperatura: 17°C
Tačka rose: -11°C
Vlažnost: 14%
Pritisak: 1031 hPa
Pregled: Vedro
Vidljivost: greater than 10 km
2020/04/07 16:00 LYBT 071600Z 08010KT CAVOK 17/M11 Q1031 NOSIG
LYVR - Vršac, Srbija
Ažurirano: 07/04/2020 18:00
Vedro
Vedro
 Pravac vetra J
Vetar: J 9 km/h
Temperatura: 18°C
Tačka rose: -8°C
Vlažnost: 16%
Pritisak: 1031 hPa
Pregled: Vedro
Vidljivost: greater than 10 km
2020/04/07 16:00 LYVR 071600Z 18005KT 160V220 CAVOK 18/M08 Q1031
 
LYKV - Lađevci, Srbija
Ažurirano: 07/04/2020 18:00
Vedro
Vedro
 Pravac vetra I
Vetar: I 17 km/h
Temperatura: 16°C
Tačka rose: -12°C
Vlažnost: 13%
Pritisak: 1031 hPa
Pregled: Vedro
Vidljivost: greater than 10 km
2020/04/07 16:00 LYKV 071600Z 09009KT 050V130 CAVOK 16/M12 Q1031 NOSIG
LYNI - Niš, Srbija
Ažurirano: 07/04/2020 18:00
Vedro
Vedro
 Pravac vetra SI
Vetar: SI 30 km/h
Temperatura: 16°C
Tačka rose: -11°C
Vlažnost: 15%
Pritisak: 1030 hPa
Pregled: Vedro
Vidljivost: greater than 10 km
2020/04/07 16:00 LYNI 071600Z 04016KT CAVOK 16/M11 Q1030 NOSIG
BKPR - Priština, Srbija
Ažurirano: 07/04/2020 18:00
Vedro
Vedro
 Pravac vetra SI
Vetar: SI 30 km/h
Temperatura: 15°C
Tačka rose: -13°C
Vlažnost: 13%
Pritisak: 1028 hPa
Pregled: Vedro
Vidljivost: greater than 10 km
2020/04/07 16:00 BKPR 071600Z 05016KT CAVOK 15/M13 Q1028 NOSIG
 
LHPP - Pecs / Pogany, Hungary
Ažurirano: 07/04/2020 17:45
Vedro
Vedro
 Pravac vetra IJI
Vetar: IJI 17 km/h
Temperatura: 17°C
Tačka rose: -8°C
Vlažnost: 17%
Pritisak: 1031 hPa
Pregled: Vedro
Vidljivost: greater than 10 km
2020/04/07 15:45 LHPP 071545Z 12009KT CAVOK 17/M08 Q1031
LHUD - Szeged, Hungary
Ažurirano: 04/07/2019 01:45
NOT Current
Vedro
Vedro
 Pravac vetra S
Vetar: S 7 km/h
Temperatura: 18°C
Tačka rose: 13°C
Vlažnost: 73%
Pritisak: 1019 hPa
Pregled: Vedro
Vidljivost: greater than 10 km
2019/07/03 23:45 LHUD 032345Z 35004KT CAVOK 18/13 Q1019
LRTR - Timisoara, Romania
Ažurirano: 07/04/2020 18:00
Vedro
Vedro
 Pravac vetra SZ
Vetar: SZ 13 km/h
Temperatura: 18°C
Tačka rose: -2°C
Vlažnost: 26%
Pritisak: 1031 hPa
Pregled: Vedro
Vidljivost: greater than 10 km
2020/04/07 16:00 LRTR 071600Z 31007KT CAVOK 18/M02 Q1031
 
LRCV - Craiova, Romania
Ažurirano: 07/04/2020 18:00
Vedro
Vedro
 Pravac vetra I
Vetar: I 9 km/h
Temperatura: 15°C
Tačka rose: -4°C
Vlažnost: 27%
Pritisak: 1032 hPa
Pregled: Vedro
Vidljivost: greater than 10 km
2020/04/07 16:00 LRCV 071600Z 09005KT CAVOK 15/M04 Q1032
LBSF - Sofia, Bulgaria
Ažurirano: 07/04/2020 18:00
Vedro
Vedro
 Pravac vetra SI
Vetar: SI 24 km/h
Temperatura: 12°C
Tačka rose: -7°C
Vlažnost: 26%
Pritisak: 1030 hPa
Pregled: Vedro
Vidljivost: greater than 10 km
2020/04/07 16:00 LBSF 071600Z 04013KT 010V070 CAVOK 12/M07 Q1030 NOSIG
LWSK - Skoplje, Makedonija
Ažurirano: 07/04/2020 18:00
Vedro
Vedro
 Pravac vetra ISI
Vetar: ISI 20 km/h
Temperatura: 18°C
Tačka rose: -9°C
Vlažnost: 15%
Pritisak: 1027 hPa
Pregled: Vedro
Vidljivost: greater than 10 km
2020/04/07 16:00 LWSK 071600Z 06011KT CAVOK 18/M09 Q1027 NOSIG
 
LYPG - Podgorica, Crna Gora
Ažurirano: 07/04/2020 18:00
Vedro
Vedro
 Pravac vetra JZ
Vetar: JZ 11 km/h
Temperatura: 20°C
Tačka rose: -6°C
Vlažnost: 17%
Pritisak: 1025 hPa
Pregled: Vedro
Vidljivost: greater than 10 km
2020/04/07 16:00 LYPG 071600Z 23006KT CAVOK 20/M06 Q1025 NOSIG
LQSA - Sarajevo, Bosna i Hercegovina
Ažurirano: 07/04/2020 16:00
NOT Current
Vedro
Vedro
 Pravac vetra I
Vetar: I 11 km/h
Temperatura: 20°C
Tačka rose: -15°C
Vlažnost: 8%
Pritisak: 1028 hPa
Pregled: Vedro
Vidljivost: greater than 10 km
2020/04/07 14:00 LQSA 071400Z 08006KT 340V140 CAVOK 20/M15 Q1028
LDOS - Osijek, Hrvatksa
Ažurirano: 07/04/2020 18:00
Vedro
Vedro
 Pravac vetra I
Vetar: I 22 km/h
Temperatura: 17°C
Tačka rose: -6°C
Vlažnost: 20%
Pritisak: 1031 hPa
Pregled: Vedro
Vidljivost: greater than 10 km
2020/04/07 16:00 LDOS 071600Z 09012KT CAVOK 17/M06 Q1031